Time;durP1;ratioP1;P1;durP2;ratioP2;P2;SDS_P1;SDS_P2;PMS_P1;PMS_P2;Temp;Humidity;BMP_temperature;BMP_pressure;BME280_temperature;BME280_humidity;BME280_pressure;Samples;Min_cycle;Max_cycle;Signal;HPM_P1;HPM_P2
2023/09/26 00:00:21;;;;;;;18.27;10.73;;;;;;;;;;6093651;23;20089;-78
2023/09/26 00:02:51;;;;;;;17.55;10.40;;;;;;;;;;6094122;23;20016;-78
2023/09/26 00:05:22;;;;;;;21.55;11.18;;;;;;;;;;6093580;23;20010;-77
2023/09/26 00:07:55;;;;;;;17.67;11.13;;;;;;;;;;6096073;23;20003;-80
2023/09/26 00:10:21;;;;;;;15.98;11.10;;;;;;;;;;6094326;23;20014;-79
2023/09/26 00:12:50;;;;;;;14.18;10.05;;;;;;;;;;6095304;23;20006;-78
2023/09/26 00:15:16;;;;;;;20.70;10.65;;;;;;;;;;6089671;23;20614;-78
2023/09/26 00:17:41;;;;;;;19.92;12.10;;;;;;;;;;6089795;23;20027;-79
2023/09/26 00:20:11;;;;;;;16.67;11.43;;;;;;;;;;6067372;23;20426;-77
2023/09/26 00:22:38;;;;;;;21.80;12.40;;;;;;;;;;6066916;23;20010;-79
2023/09/26 00:25:04;;;;;;;19.90;11.38;;;;;;;;;;6068684;23;20034;-78
2023/09/26 00:27:30;;;;;;;17.20;11.20;;;;;;;;;;6070466;23;20013;-78
2023/09/26 00:29:56;;;;;;;20.55;11.70;;;;;;;;;;6070681;23;20028;-78
2023/09/26 00:32:23;;;;;;;17.70;11.65;;;;;;;;;;6070485;23;20031;-78
2023/09/26 00:34:49;;;;;;;18.85;11.23;;;;;;;;;;6069184;23;20022;-79
2023/09/26 00:37:15;;;;;;;17.58;11.93;;;;;;;;;;6070292;23;20336;-78
2023/09/26 00:39:41;;;;;;;18.33;11.63;;;;;;;;;;6072395;23;20018;-80
2023/09/26 00:42:06;;;;;;;19.83;12.38;;;;;;;;;;6095506;23;20007;-79
2023/09/26 00:44:37;;;;;;;18.52;12.57;;;;;;;;;;6073177;23;20009;-80
2023/09/26 00:47:03;;;;;;;19.83;11.90;;;;;;;;;;6072539;23;20007;-78
2023/09/26 00:49:30;;;;;;;27.88;12.20;;;;;;;;;;6070622;23;20070;-79
2023/09/26 00:51:58;;;;;;;18.33;12.15;;;;;;;;;;6068584;23;20014;-77
2023/09/26 00:54:24;;;;;;;19.95;11.77;;;;;;;;;;6070634;23;20014;-79
2023/09/26 00:56:50;;;;;;;19.45;11.55;;;;;;;;;;6068038;23;20015;-76
2023/09/26 00:59:16;;;;;;;18.25;12.35;;;;;;;;;;6065911;23;20017;-79
2023/09/26 01:01:45;;;;;;;20.98;13.27;;;;;;;;;;6067508;23;20364;-79
2023/09/26 01:04:12;;;;;;;19.35;13.60;;;;;;;;;;6065862;23;20411;-78
2023/09/26 01:06:41;;;;;;;19.70;12.82;;;;;;;;;;6068366;23;20017;-78
2023/09/26 01:09:09;;;;;;;20.13;12.40;;;;;;;;;;6090828;23;20014;-77
2023/09/26 01:11:38;;;;;;;21.25;12.60;;;;;;;;;;6068747;23;20058;-79
2023/09/26 01:14:04;;;;;;;16.90;12.27;;;;;;;;;;6068208;23;20329;-77
2023/09/26 01:16:29;;;;;;;16.75;12.18;;;;;;;;;;6097076;23;20029;-79
2023/09/26 01:18:55;;;;;;;18.55;12.02;;;;;;;;;;6066361;23;20345;-79
2023/09/26 01:21:21;;;;;;;17.92;11.43;;;;;;;;;;6071356;23;20079;-79
2023/09/26 01:23:56;;;;;;;19.88;11.93;;;;;;;;;;6065951;23;20003;-78
2023/09/26 01:26:33;;;;;;;20.45;11.50;;;;;;;;;;6064568;23;20093;-77
2023/09/26 01:28:58;;;;;;;20.05;11.25;;;;;;;;;;6066372;23;20058;-79
2023/09/26 01:31:24;;;;;;;20.58;12.27;;;;;;;;;;6064116;23;20011;-77
2023/09/26 01:33:50;;;;;;;18.67;11.90;;;;;;;;;;6064742;23;20011;-78
2023/09/26 01:36:17;;;;;;;16.90;10.73;;;;;;;;;;6068821;23;20010;-79
2023/09/26 01:38:43;;;;;;;17.10;11.77;;;;;;;;;;6092257;23;20388;-78
2023/09/26 01:41:10;;;;;;;21.98;12.43;;;;;;;;;;6094703;23;20071;-79
2023/09/26 01:43:36;;;;;;;23.40;13.75;;;;;;;;;;6072745;23;20055;-78
2023/09/26 01:46:02;;;;;;;18.85;12.00;;;;;;;;;;6066866;23;20014;-79
2023/09/26 01:48:28;;;;;;;21.20;13.27;;;;;;;;;;6066361;23;20408;-79
2023/09/26 01:51:01;;;;;;;19.00;12.00;;;;;;;;;;6068184;23;20014;-78
2023/09/26 01:53:27;;;;;;;20.50;12.80;;;;;;;;;;6089935;23;20011;-79
2023/09/26 01:55:59;;;;;;;18.15;10.80;;;;;;;;;;6066516;23;20088;-80
2023/09/26 01:58:25;;;;;;;19.40;11.40;;;;;;;;;;6066590;23;20006;-78
2023/09/26 02:00:51;;;;;;;17.92;10.57;;;;;;;;;;6066693;23;20030;-79
2023/09/26 02:03:17;;;;;;;19.35;11.10;;;;;;;;;;6064073;23;20007;-75
2023/09/26 02:05:43;;;;;;;15.80;10.75;;;;;;;;;;6065376;23;20456;-77
2023/09/26 02:08:08;;;;;;;17.35;10.18;;;;;;;;;;6064574;23;20440;-74
2023/09/26 02:10:34;;;;;;;16.48;10.63;;;;;;;;;;6063715;23;20038;-75
2023/09/26 02:13:00;;;;;;;23.17;10.90;;;;;;;;;;6087789;23;20094;-73
2023/09/26 02:15:26;;;;;;;16.85;10.88;;;;;;;;;;6074314;23;20452;-74
2023/09/26 02:17:52;;;;;;;16.27;10.38;;;;;;;;;;6095201;23;20002;-74
2023/09/26 02:20:19;;;;;;;14.25;9.90;;;;;;;;;;6093614;23;20015;-75
2023/09/26 02:22:51;;;;;;;13.82;10.43;;;;;;;;;;6096659;23;20025;-74
2023/09/26 02:25:21;;;;;;;16.48;10.35;;;;;;;;;;6098815;23;20002;-78
2023/09/26 02:27:48;;;;;;;14.15;9.48;;;;;;;;;;6077037;23;20070;-74
2023/09/26 02:30:23;;;;;;;16.08;10.35;;;;;;;;;;6099838;23;20018;-75
2023/09/26 02:32:49;;;;;;;18.30;10.95;;;;;;;;;;6094142;23;20086;-74
2023/09/26 02:35:18;;;;;;;14.23;9.90;;;;;;;;;;6095190;23;20034;-76
2023/09/26 02:37:44;;;;;;;20.85;10.45;;;;;;;;;;6095689;23;20408;-75
2023/09/26 02:40:11;;;;;;;14.52;9.50;;;;;;;;;;6069970;23;20156;-73
2023/09/26 02:42:38;;;;;;;14.60;10.82;;;;;;;;;;6094543;23;20336;-74
2023/09/26 02:45:04;;;;;;;19.15;11.13;;;;;;;;;;6071606;23;20435;-73
2023/09/26 02:47:30;;;;;;;15.85;10.90;;;;;;;;;;6095363;23;20006;-73
2023/09/26 02:49:56;;;;;;;18.30;10.30;;;;;;;;;;6097038;23;20006;-73
2023/09/26 02:52:22;;;;;;;15.93;10.57;;;;;;;;;;6094545;23;20010;-72
2023/09/26 02:54:48;;;;;;;16.67;10.10;;;;;;;;;;6094988;23;20006;-74
2023/09/26 02:57:15;;;;;;;15.60;10.73;;;;;;;;;;6094812;23;20097;-74
2023/09/26 02:59:40;;;;;;;19.35;11.82;;;;;;;;;;6095227;23;20022;-75
2023/09/26 03:02:06;;;;;;;18.45;11.57;;;;;;;;;;6096883;23;19998;-74
2023/09/26 03:04:33;;;;;;;19.77;12.05;;;;;;;;;;6095819;23;20010;-74
2023/09/26 03:06:58;;;;;;;17.27;11.05;;;;;;;;;;6095333;23;20009;-74
2023/09/26 03:09:24;;;;;;;15.77;10.35;;;;;;;;;;6092597;23;20006;-75
2023/09/26 03:11:50;;;;;;;22.40;11.70;;;;;;;;;;6092737;23;20014;-76
2023/09/26 03:14:19;;;;;;;17.92;11.35;;;;;;;;;;6092529;23;20011;-74
2023/09/26 03:16:46;;;;;;;16.75;10.80;;;;;;;;;;6087318;23;20030;-74
2023/09/26 03:19:12;;;;;;;17.00;11.80;;;;;;;;;;6065009;23;20018;-74
2023/09/26 03:21:38;;;;;;;17.73;11.15;;;;;;;;;;6064394;23;20361;-73
2023/09/26 03:24:04;;;;;;;20.50;11.88;;;;;;;;;;6063226;23;20011;-76
2023/09/26 03:26:30;;;;;;;19.15;10.93;;;;;;;;;;6063554;23;20090;-75
2023/09/26 03:28:55;;;;;;;16.15;11.45;;;;;;;;;;6065682;23;20542;-73
2023/09/26 03:31:21;;;;;;;18.17;10.93;;;;;;;;;;6088613;23;20446;-75
2023/09/26 03:33:48;;;;;;;16.83;10.80;;;;;;;;;;6089532;23;20317;-75
2023/09/26 03:36:14;;;;;;;15.27;10.00;;;;;;;;;;6066366;23;20077;-74
2023/09/26 03:38:40;;;;;;;17.08;11.30;;;;;;;;;;6066648;23;20761;-75
2023/09/26 03:41:08;;;;;;;15.75;10.73;;;;;;;;;;6066930;23;20338;-76
2023/09/26 03:43:34;;;;;;;16.92;11.63;;;;;;;;;;6065953;23;20328;-75
2023/09/26 03:46:06;;;;;;;18.02;10.93;;;;;;;;;;6065883;23;20006;-76
2023/09/26 03:48:33;;;;;;;17.25;10.73;;;;;;;;;;6066034;23;20055;-75
2023/09/26 03:51:09;;;;;;;15.50;10.75;;;;;;;;;;6089978;23;20097;-76
2023/09/26 03:53:36;;;;;;;17.65;10.32;;;;;;;;;;6065812;23;20326;-76
2023/09/26 03:56:02;;;;;;;16.67;10.43;;;;;;;;;;6065967;23;20320;-77
2023/09/26 03:58:27;;;;;;;16.00;11.02;;;;;;;;;;6065454;23;20085;-75
2023/09/26 04:00:54;;;;;;;17.20;11.18;;;;;;;;;;6067325;23;20024;-76
2023/09/26 04:03:20;;;;;;;15.68;11.10;;;;;;;;;;6065589;23;20003;-75
2023/09/26 04:05:48;;;;;;;21.25;11.15;;;;;;;;;;6065082;23;20010;-77
2023/09/26 04:08:16;;;;;;;14.27;10.55;;;;;;;;;;6067434;23;20031;-77
2023/09/26 04:10:42;;;;;;;15.98;11.63;;;;;;;;;;6065034;23;20508;-76
2023/09/26 04:13:08;;;;;;;15.90;10.38;;;;;;;;;;6065253;23;20142;-77
2023/09/26 04:15:40;;;;;;;19.92;11.05;;;;;;;;;;6077386;23;20026;-76
2023/09/26 04:18:06;;;;;;;;;;;;;;;;;;6094708;23;20086;-77
2023/09/26 04:20:35;;;;;;;20.10;10.02;;;;;;;;;;6095239;23;19997;-76
2023/09/26 04:23:01;;;;;;;14.18;9.77;;;;;;;;;;6094209;23;20006;-77
2023/09/26 04:25:30;;;;;;;18.80;10.68;;;;;;;;;;6093705;23;20627;-76
2023/09/26 04:27:55;;;;;;;16.05;11.07;;;;;;;;;;6094002;23;20017;-78
2023/09/26 04:30:21;;;;;;;16.05;10.40;;;;;;;;;;6093879;23;20085;-77
2023/09/26 04:32:47;;;;;;;15.43;10.70;;;;;;;;;;6095174;23;20006;-75
2023/09/26 04:35:13;;;;;;;20.23;11.23;;;;;;;;;;6093053;23;20077;-76
2023/09/26 04:37:40;;;;;;;32.08;10.98;;;;;;;;;;6089563;23;20006;-75
2023/09/26 04:40:10;;;;;;;15.07;10.70;;;;;;;;;;6096037;23;20010;-75
2023/09/26 04:42:41;;;;;;;18.98;10.50;;;;;;;;;;6095673;23;20446;-75
2023/09/26 04:45:07;;;;;;;16.17;11.25;;;;;;;;;;6094006;23;20093;-74
2023/09/26 04:47:34;;;;;;;14.85;10.25;;;;;;;;;;6094513;23;20348;-74
2023/09/26 04:50:00;;;;;;;14.05;11.05;;;;;;;;;;6094172;23;20037;-75
2023/09/26 04:52:26;;;;;;;15.73;10.63;;;;;;;;;;6094167;23;20085;-78
2023/09/26 04:54:52;;;;;;;15.07;10.55;;;;;;;;;;6098336;23;20006;-77
2023/09/26 04:57:18;;;;;;;16.25;10.70;;;;;;;;;;6094576;23;20010;-77
2023/09/26 04:59:44;;;;;;;15.45;10.85;;;;;;;;;;6092517;23;20017;-77
2023/09/26 05:02:10;;;;;;;21.20;13.00;;;;;;;;;;6095364;23;20009;-78
2023/09/26 05:04:36;;;;;;;18.02;12.45;;;;;;;;;;6094717;23;20041;-79
2023/09/26 05:07:02;;;;;;;18.40;12.05;;;;;;;;;;6091043;23;20032;-76
2023/09/26 05:09:28;;;;;;;22.27;13.73;;;;;;;;;;6094385;23;20006;-77
2023/09/26 05:11:54;;;;;;;18.85;12.45;;;;;;;;;;6092418;23;20594;-78
2023/09/26 05:14:20;;;;;;;20.40;12.45;;;;;;;;;;6092281;23;20033;-78
2023/09/26 05:16:48;;;;;;;21.08;11.65;;;;;;;;;;6119502;23;20018;-78
2023/09/26 05:19:14;;;;;;;18.88;12.55;;;;;;;;;;6098180;23;20018;-76
2023/09/26 05:21:40;;;;;;;20.45;11.20;;;;;;;;;;6093676;23;20017;-77
2023/09/26 05:24:07;;;;;;;21.50;12.88;;;;;;;;;;6095422;23;20318;-75
2023/09/26 05:26:35;;;;;;;22.48;11.65;;;;;;;;;;6120963;23;20029;-76
2023/09/26 05:29:00;;;;;;;19.80;12.25;;;;;;;;;;6097157;23;20060;-79
2023/09/26 05:31:30;;;;;;;18.90;12.23;;;;;;;;;;6124828;23;20063;-79
2023/09/26 05:33:58;;;;;;;;;;;;;;;;;;6122710;23;20021;-76
2023/09/26 05:36:25;;;;;;;22.02;12.98;;;;;;;;;;6095435;23;20582;-76
2023/09/26 05:38:50;;;;;;;22.35;12.93;;;;;;;;;;6120581;23;20137;-75
2023/09/26 05:41:17;;;;;;;21.10;13.75;;;;;;;;;;6098455;23;20029;-76
2023/09/26 05:43:43;;;;;;;20.33;12.55;;;;;;;;;;6097914;23;20002;-79
2023/09/26 05:46:10;;;;;;;20.15;11.38;;;;;;;;;;6097592;23;20033;-75
2023/09/26 05:48:36;;;;;;;18.63;11.65;;;;;;;;;;6125130;23;20018;-75
2023/09/26 05:51:03;;;;;;;17.17;12.07;;;;;;;;;;6134194;23;20002;-77
2023/09/26 05:53:30;;;;;;;21.05;12.43;;;;;;;;;;6107500;23;20458;-78
2023/09/26 05:55:56;;;;;;;20.27;12.27;;;;;;;;;;6119806;23;20112;-73
2023/09/26 05:58:25;;;;;;;23.10;14.00;;;;;;;;;;6094875;23;20016;-79
2023/09/26 06:00:53;;;;;;;21.60;12.85;;;;;;;;;;6096526;23;20010;-76
2023/09/26 06:03:19;;;;;;;20.60;12.27;;;;;;;;;;6096608;23;20088;-76
2023/09/26 06:05:45;;;;;;;27.17;14.27;;;;;;;;;;6121651;23;20044;-75
2023/09/26 06:08:11;;;;;;;23.65;13.70;;;;;;;;;;6092473;23;20006;-78
2023/09/26 06:10:36;;;;;;;21.90;12.98;;;;;;;;;;6098013;23;20016;-77
2023/09/26 06:13:02;;;;;;;28.33;14.30;;;;;;;;;;6123995;23;20007;-80
2023/09/26 06:15:31;;;;;;;22.40;13.88;;;;;;;;;;6116582;23;20021;-76
2023/09/26 06:17:57;;;;;;;27.55;14.93;;;;;;;;;;6120403;23;20419;-80
2023/09/26 06:20:26;;;;;;;22.67;13.77;;;;;;;;;;6099090;23;20073;-76
2023/09/26 06:22:51;;;;;;;25.85;14.73;;;;;;;;;;6123777;23;20477;-74
2023/09/26 06:25:17;;;;;;;30.63;13.57;;;;;;;;;;6096411;23;20037;-75
2023/09/26 06:27:42;;;;;;;25.10;14.57;;;;;;;;;;6121503;23;20427;-75
2023/09/26 06:30:10;;;;;;;21.42;13.18;;;;;;;;;;6095429;23;20021;-74
2023/09/26 06:32:37;;;;;;;27.48;13.55;;;;;;;;;;6097183;23;20010;-75
2023/09/26 06:35:02;;;;;;;26.58;14.82;;;;;;;;;;6123505;23;20002;-74
2023/09/26 06:37:28;;;;;;;27.65;13.65;;;;;;;;;;6095985;23;20016;-78
2023/09/26 06:39:58;;;;;;;25.70;14.43;;;;;;;;;;6124398;23;20034;-74
2023/09/26 06:42:24;;;;;;;23.88;14.50;;;;;;;;;;6107280;23;20009;-79
2023/09/26 06:44:50;;;;;;;23.67;14.27;;;;;;;;;;6139363;23;20470;-75
2023/09/26 06:47:19;;;;;;;24.13;14.60;;;;;;;;;;6109659;23;20006;-78
2023/09/26 06:49:46;;;;;;;26.88;15.30;;;;;;;;;;6101787;23;20027;-77
2023/09/26 06:52:15;;;;;;;24.73;14.55;;;;;;;;;;6102341;23;20009;-77
2023/09/26 06:54:47;;;;;;;26.42;15.30;;;;;;;;;;6100247;23;20038;-76
2023/09/26 06:57:17;;;;;;;29.88;16.15;;;;;;;;;;6122876;23;20013;-77
2023/09/26 06:59:49;;;;;;;33.53;17.27;;;;;;;;;;6097246;23;20013;-77
2023/09/26 07:02:21;;;;;;;;;;;;;;;;;;6124631;23;20023;-77
2023/09/26 07:05:03;;;;;;;26.83;16.67;;;;;;;;;;6121770;23;19913;-77
2023/09/26 07:07:31;;;;;;;31.45;18.75;;;;;;;;;;6093174;23;20400;-76
2023/09/26 07:10:40;;;;;;;30.17;18.70;;;;;;;;;;6122432;23;20438;-78
2023/09/26 07:13:10;;;;;;;33.50;18.83;;;;;;;;;;6123180;23;20034;-77
2023/09/26 07:15:42;;;;;;;35.63;18.98;;;;;;;;;;6121185;23;20108;-76
2023/09/26 07:18:10;;;;;;;34.80;20.85;;;;;;;;;;6118563;23;20485;-76
2023/09/26 07:21:10;;;;;;;;;;;;;;;;;;;;;
2023/09/26 07:23:45;;;;;;;34.72;18.65;;;;;;;;;;6117339;23;20008;-76
2023/09/26 07:26:13;;;;;;;26.60;16.55;;;;;;;;;;6116338;23;20016;-78
2023/09/26 07:29:01;;;;;;;28.40;16.30;;;;;;;;;;6116440;23;20013;-77
2023/09/26 07:31:29;;;;;;;29.38;17.10;;;;;;;;;;6113232;23;20056;-76
2023/09/26 07:34:20;;;;;;;25.75;17.48;;;;;;;;;;6090433;23;20012;-80
2023/09/26 07:36:57;;;;;;;24.33;16.60;;;;;;;;;;6116282;23;20021;-79
2023/09/26 07:39:32;;;;;;;37.50;19.95;;;;;;;;;;6093168;23;20082;-79
2023/09/26 07:42:04;;;;;;;32.35;20.50;;;;;;;;;;6093294;23;20014;-78
2023/09/26 07:44:29;;;;;;;31.77;17.55;;;;;;;;;;6093882;23;20017;-78
2023/09/26 07:46:57;;;;;;;32.50;18.27;;;;;;;;;;6117608;23;20005;-77
2023/09/26 07:49:22;;;;;;;26.35;16.85;;;;;;;;;;6116116;23;20014;-78
2023/09/26 07:51:48;;;;;;;31.27;18.25;;;;;;;;;;6093112;23;20546;-80
2023/09/26 07:54:14;;;;;;;32.83;17.35;;;;;;;;;;6091806;23;20396;-77
2023/09/26 07:56:41;;;;;;;26.75;17.88;;;;;;;;;;6118189;23;20006;-76
2023/09/26 07:59:08;;;;;;;23.02;15.63;;;;;;;;;;6093084;23;20009;-77
2023/09/26 08:01:34;;;;;;;21.48;15.55;;;;;;;;;;6121029;23;20037;-78
2023/09/26 08:04:07;;;;;;;27.95;16.35;;;;;;;;;;6122930;23;20014;-76
2023/09/26 08:06:35;;;;;;;27.50;16.70;;;;;;;;;;6102847;23;20005;-77
2023/09/26 08:09:03;;;;;;;20.98;15.15;;;;;;;;;;6115433;23;20048;-78
2023/09/26 08:11:30;;;;;;;26.35;16.60;;;;;;;;;;6101244;23;20073;-80
2023/09/26 08:13:56;;;;;;;24.67;16.00;;;;;;;;;;6121762;23;20391;-80
2023/09/26 08:16:23;;;;;;;23.58;15.38;;;;;;;;;;6115079;23;20022;-82
2023/09/26 08:18:50;;;;;;;22.38;14.93;;;;;;;;;;6090028;23;20033;-77
2023/09/26 08:21:17;;;;;;;23.17;15.15;;;;;;;;;;6090420;23;20013;-79
2023/09/26 08:23:43;;;;;;;29.00;16.00;;;;;;;;;;6091699;23;20541;-78
2023/09/26 08:26:11;;;;;;;24.65;15.45;;;;;;;;;;6114937;23;20006;-80
2023/09/26 08:28:39;;;;;;;25.13;15.02;;;;;;;;;;6116013;23;20010;-77
2023/09/26 08:31:07;;;;;;;24.80;16.27;;;;;;;;;;6119119;23;20017;-78
2023/09/26 08:33:34;;;;;;;23.60;15.60;;;;;;;;;;6092463;23;20338;-77
2023/09/26 08:36:01;;;;;;;23.13;15.77;;;;;;;;;;6092539;23;20014;-77
2023/09/26 08:38:28;;;;;;;26.80;15.30;;;;;;;;;;6117010;23;20006;-79
2023/09/26 08:41:00;;;;;;;25.95;16.23;;;;;;;;;;6093446;23;20097;-78
2023/09/26 08:43:26;;;;;;;26.48;16.33;;;;;;;;;;6116566;23;20061;-79
2023/09/26 08:45:53;;;;;;;27.85;16.38;;;;;;;;;;6091218;23;20018;-78
2023/09/26 08:48:21;;;;;;;28.02;16.20;;;;;;;;;;6117375;23;20001;-79
2023/09/26 08:50:47;;;;;;;28.98;15.80;;;;;;;;;;6090822;23;20006;-77
2023/09/26 08:53:13;;;;;;;25.27;15.25;;;;;;;;;;6086054;23;20013;-82
2023/09/26 08:55:41;;;;;;;21.50;14.50;;;;;;;;;;6089473;23;20013;-78
2023/09/26 08:58:13;;;;;;;30.05;16.05;;;;;;;;;;6116387;23;20013;-78
2023/09/26 09:00:39;;;;;;;27.42;15.52;;;;;;;;;;6090717;23;20354;-78
2023/09/26 09:03:06;;;;;;;21.73;13.73;;;;;;;;;;6114924;23;20013;-76
2023/09/26 09:05:32;;;;;;;21.55;13.25;;;;;;;;;;6086560;23;20040;-76
2023/09/26 09:07:58;;;;;;;22.83;13.40;;;;;;;;;;6087777;23;20511;-78
2023/09/26 09:10:24;;;;;;;24.25;15.68;;;;;;;;;;6091594;23;20014;-78
2023/09/26 09:13:04;;;;;;;19.52;12.55;;;;;;;;;;6117472;23;20450;-80
2023/09/26 09:15:30;;;;;;;17.25;12.23;;;;;;;;;;6051383;23;20416;-77
2023/09/26 09:17:57;;;;;;;22.23;12.70;;;;;;;;;;6079567;23;20090;-78
2023/09/26 09:20:34;;;;;;;20.00;12.70;;;;;;;;;;6057066;23;20010;-78
2023/09/26 09:23:01;;;;;;;24.10;12.48;;;;;;;;;;6056297;23;20011;-77
2023/09/26 09:25:32;;;;;;;21.95;12.38;;;;;;;;;;6059684;23;20010;-78
2023/09/26 09:28:03;;;;;;;21.75;12.75;;;;;;;;;;6061026;23;20030;-76
2023/09/26 09:30:29;;;;;;;18.93;11.40;;;;;;;;;;6058482;23;20022;-77
2023/09/26 09:32:56;;;;;;;24.98;14.63;;;;;;;;;;6061265;23;20412;-77
2023/09/26 09:35:22;;;;;;;26.25;12.27;;;;;;;;;;6061117;23;20022;-77
2023/09/26 09:37:50;;;;;;;22.88;11.55;;;;;;;;;;6063729;23;20018;-78
2023/09/26 09:40:20;;;;;;;18.55;11.35;;;;;;;;;;6069404;23;20225;-78
2023/09/26 09:42:51;;;;;;;20.92;11.95;;;;;;;;;;6069052;23;20013;-78
2023/09/26 09:45:19;;;;;;;21.08;12.88;;;;;;;;;;6074012;23;20077;-77
2023/09/26 09:47:46;;;;;;;17.92;10.52;;;;;;;;;;6072969;23;20019;-79
2023/09/26 09:50:13;;;;;;;17.60;10.85;;;;;;;;;;6074540;23;20022;-77
2023/09/26 09:52:45;;;;;;;18.33;10.52;;;;;;;;;;6067902;23;20006;-79
2023/09/26 09:55:18;;;;;;;;;;;;;;;;;;6083106;23;20370;-78
2023/09/26 09:57:48;;;;;;;19.98;11.43;;;;;;;;;;6080213;23;19910;-80
2023/09/26 10:00:14;;;;;;;18.92;11.65;;;;;;;;;;6081800;23;20062;-79
2023/09/26 10:02:40;;;;;;;18.45;10.95;;;;;;;;;;6059696;23;20002;-78
2023/09/26 10:05:12;;;;;;;16.75;11.38;;;;;;;;;;6059230;23;20011;-78
2023/09/26 10:07:41;;;;;;;19.90;11.07;;;;;;;;;;6058770;23;20034;-76
2023/09/26 10:10:09;;;;;;;16.85;10.32;;;;;;;;;;6057716;23;20010;-77
2023/09/26 10:12:39;;;;;;;17.50;10.48;;;;;;;;;;6058274;23;20444;-79
2023/09/26 10:15:11;;;;;;;15.32;10.48;;;;;;;;;;6063148;23;20022;-79
2023/09/26 10:17:42;;;;;;;14.70;10.00;;;;;;;;;;6085522;23;20025;-78
2023/09/26 10:20:11;;;;;;;19.90;12.40;;;;;;;;;;6086408;23;20010;-78
2023/09/26 10:22:45;;;;;;;16.93;10.30;;;;;;;;;;6089843;23;20006;-77
2023/09/26 10:25:23;;;;;;;19.58;11.63;;;;;;;;;;6088562;23;20034;-75
2023/09/26 10:27:51;;;;;;;17.45;10.30;;;;;;;;;;6092984;23;20006;-74
2023/09/26 10:30:20;;;;;;;18.55;11.27;;;;;;;;;;6099022;23;20074;-75
2023/09/26 10:32:46;;;;;;;15.60;10.38;;;;;;;;;;6099718;23;20129;-74
2023/09/26 10:35:25;;;;;;;17.65;13.18;;;;;;;;;;6091116;23;20021;-78
2023/09/26 10:38:09;;;;;;;19.25;11.20;;;;;;;;;;6087289;23;20089;-75
2023/09/26 10:40:35;;;;;;;14.60;9.65;;;;;;;;;;6086826;23;20010;-76
2023/09/26 10:43:02;;;;;;;15.43;10.45;;;;;;;;;;6086921;23;20014;-78
2023/09/26 10:45:31;;;;;;;20.13;11.23;;;;;;;;;;6087263;23;20010;-77
2023/09/26 10:47:57;;;;;;;20.23;12.77;;;;;;;;;;6086341;23;20010;-78
2023/09/26 10:50:24;;;;;;;14.15;10.18;;;;;;;;;;6087332;23;20010;-77
2023/09/26 10:52:50;;;;;;;23.88;11.80;;;;;;;;;;6089113;23;20010;-78
2023/09/26 10:55:18;;;;;;;16.83;11.25;;;;;;;;;;6090436;23;20038;-76
2023/09/26 10:57:46;;;;;;;20.60;10.68;;;;;;;;;;6090771;23;20097;-77
2023/09/26 11:00:14;;;;;;;16.80;10.85;;;;;;;;;;6102939;23;20025;-76
2023/09/26 11:02:42;;;;;;;16.70;10.55;;;;;;;;;;6100626;23;20010;-78
2023/09/26 11:05:13;;;;;;;21.35;12.73;;;;;;;;;;6081925;23;20011;-76
2023/09/26 11:07:41;;;;;;;26.02;11.95;;;;;;;;;;6082000;23;20424;-79
2023/09/26 11:10:16;;;;;;;17.63;10.23;;;;;;;;;;6083942;23;20652;-77
2023/09/26 11:12:43;;;;;;;14.52;10.35;;;;;;;;;;6081669;23;20029;-76
2023/09/26 11:15:09;;;;;;;18.48;10.45;;;;;;;;;;6080828;23;20504;-78
2023/09/26 11:17:39;;;;;;;32.83;10.77;;;;;;;;;;6081108;23;20065;-75
2023/09/26 11:20:12;;;;;;;22.50;11.13;;;;;;;;;;6087633;23;20010;-73
2023/09/26 11:22:49;;;;;;;28.52;12.05;;;;;;;;;;6083283;23;20083;-71
2023/09/26 11:25:15;;;;;;;17.23;10.38;;;;;;;;;;6085569;23;20045;-77
2023/09/26 11:27:43;;;;;;;15.52;10.50;;;;;;;;;;6085351;23;20021;-76
2023/09/26 11:30:14;;;;;;;16.35;10.48;;;;;;;;;;6082719;23;20336;-76
2023/09/26 11:32:41;;;;;;;20.13;10.32;;;;;;;;;;6079831;23;20022;-76
2023/09/26 11:35:08;;;;;;;13.85;9.25;;;;;;;;;;6086318;23;20010;-75
2023/09/26 11:37:36;;;;;;;17.20;9.50;;;;;;;;;;6083227;23;20017;-77
2023/09/26 11:40:06;;;;;;;16.80;10.00;;;;;;;;;;6088804;23;20427;-75
2023/09/26 11:42:41;;;;;;;13.93;9.07;;;;;;;;;;6090181;23;20157;-77
2023/09/26 11:45:08;;;;;;;10.73;8.07;;;;;;;;;;6066642;23;20035;-77
2023/09/26 11:47:34;;;;;;;16.27;9.55;;;;;;;;;;6092723;23;20384;-76
2023/09/26 11:50:00;;;;;;;18.95;9.43;;;;;;;;;;6075764;23;20029;-76
2023/09/26 11:52:26;;;;;;;18.88;8.73;;;;;;;;;;6100260;23;20010;-78
2023/09/26 11:54:51;;;;;;;16.13;8.88;;;;;;;;;;6099613;23;20013;-75
2023/09/26 11:57:18;;;;;;;16.20;10.02;;;;;;;;;;6089275;23;20006;-76
2023/09/26 11:59:44;;;;;;;16.17;8.93;;;;;;;;;;6088158;23;20069;-76
2023/09/26 12:02:10;;;;;;;12.98;8.55;;;;;;;;;;6085159;23;20006;-77
2023/09/26 12:04:36;;;;;;;16.63;9.35;;;;;;;;;;6086040;23;20548;-76
2023/09/26 12:07:03;;;;;;;18.08;9.18;;;;;;;;;;6088586;23;20011;-77
2023/09/26 12:09:33;;;;;;;16.60;9.00;;;;;;;;;;6090558;23;20014;-75
2023/09/26 12:12:02;;;;;;;19.65;8.43;;;;;;;;;;6088657;23;20003;-77
2023/09/26 12:14:28;;;;;;;9.85;7.55;;;;;;;;;;6088097;23;20076;-79
2023/09/26 12:16:56;;;;;;;13.45;9.60;;;;;;;;;;6086025;23;20499;-79
2023/09/26 12:19:22;;;;;;;12.40;7.90;;;;;;;;;;6089270;23;20010;-76
2023/09/26 12:21:48;;;;;;;14.13;8.18;;;;;;;;;;6089285;23;20440;-75
2023/09/26 12:24:14;;;;;;;15.55;8.18;;;;;;;;;;6090346;23;20034;-77
2023/09/26 12:26:41;;;;;;;13.20;7.78;;;;;;;;;;6092344;23;20010;-77
2023/09/26 12:29:08;;;;;;;14.40;8.80;;;;;;;;;;6092325;23;20007;-78
2023/09/26 12:31:34;;;;;;;18.45;8.93;;;;;;;;;;6091425;23;20010;-77
2023/09/26 12:34:02;;;;;;;12.10;7.78;;;;;;;;;;6091454;23;20006;-75
2023/09/26 12:36:28;;;;;;;14.35;8.63;;;;;;;;;;6089123;23;20389;-76
2023/09/26 12:38:54;;;;;;;13.88;8.05;;;;;;;;;;6092850;23;20458;-77
2023/09/26 12:41:20;;;;;;;15.10;8.70;;;;;;;;;;6094434;23;20006;-77
2023/09/26 12:43:46;;;;;;;12.63;8.95;;;;;;;;;;6092773;23;20631;-75
2023/09/26 12:46:12;;;;;;;13.90;9.20;;;;;;;;;;6091114;23;20006;-75
2023/09/26 12:48:38;;;;;;;14.10;7.72;;;;;;;;;;6090855;23;20010;-77
2023/09/26 12:51:03;;;;;;;10.77;7.75;;;;;;;;;;6088916;23;20034;-76
2023/09/26 12:53:29;;;;;;;12.48;7.25;;;;;;;;;;6090348;23;20786;-77
2023/09/26 12:55:55;;;;;;;9.88;8.68;;;;;;;;;;6083329;23;20018;-76
2023/09/26 12:58:21;;;;;;;24.92;9.88;;;;;;;;;;6087123;23;20006;-76
2023/09/26 13:00:47;;;;;;;10.88;7.68;;;;;;;;;;6085052;23;20440;-76
2023/09/26 13:03:12;;;;;;;10.57;7.35;;;;;;;;;;6087231;23;20014;-76
2023/09/26 13:05:39;;;;;;;17.48;9.48;;;;;;;;;;6086865;23;20025;-79
2023/09/26 13:08:05;;;;;;;16.75;8.50;;;;;;;;;;6087348;23;20016;-76
2023/09/26 13:10:31;;;;;;;14.10;9.15;;;;;;;;;;6089119;23;20109;-78
2023/09/26 13:12:57;;;;;;;20.30;12.77;;;;;;;;;;6090406;23;20003;-75
2023/09/26 13:15:27;;;;;;;23.65;12.88;;;;;;;;;;6088198;23;20037;-75
2023/09/26 13:17:52;;;;;;;20.67;11.18;;;;;;;;;;6091109;23;20014;-76
2023/09/26 13:20:18;;;;;;;18.35;13.40;;;;;;;;;;6090570;23;20131;-75
2023/09/26 13:22:44;;;;;;;20.13;8.98;;;;;;;;;;6090124;23;20066;-75
2023/09/26 13:25:09;;;;;;;14.27;9.10;;;;;;;;;;6088748;23;20014;-75
2023/09/26 13:27:35;;;;;;;15.15;7.75;;;;;;;;;;6085612;23;20041;-76
2023/09/26 13:30:01;;;;;;;15.88;8.45;;;;;;;;;;6085160;23;20014;-77
2023/09/26 13:32:26;;;;;;;11.32;8.25;;;;;;;;;;6082594;23;20010;-76
2023/09/26 13:34:53;;;;;;;13.15;8.02;;;;;;;;;;6083504;23;20006;-77
2023/09/26 13:37:18;;;;;;;13.02;8.02;;;;;;;;;;6086047;23;20007;-76
2023/09/26 13:39:44;;;;;;;15.45;8.95;;;;;;;;;;6085840;23;20093;-77
2023/09/26 13:42:11;;;;;;;17.25;10.05;;;;;;;;;;6085351;23;20014;-77
2023/09/26 13:44:38;;;;;;;17.30;9.70;;;;;;;;;;6086758;23;20021;-78
2023/09/26 13:47:04;;;;;;;14.23;11.00;;;;;;;;;;6085226;23;20182;-77
2023/09/26 13:49:29;;;;;;;16.17;9.75;;;;;;;;;;6086996;23;20694;-77
2023/09/26 13:51:57;;;;;;;12.05;9.07;;;;;;;;;;6085063;23;20010;-77
2023/09/26 13:54:25;;;;;;;15.90;8.93;;;;;;;;;;6084509;23;20014;-76
2023/09/26 13:56:54;;;;;;;16.90;10.25;;;;;;;;;;6084913;23;20132;-77
2023/09/26 13:59:20;;;;;;;12.80;9.20;;;;;;;;;;6081003;23;20002;-76
2023/09/26 14:01:45;;;;;;;16.05;9.70;;;;;;;;;;6083862;23;20009;-77
2023/09/26 14:04:13;;;;;;;22.23;12.02;;;;;;;;;;6083818;23;20328;-77
2023/09/26 14:06:39;;;;;;;15.63;8.32;;;;;;;;;;6083284;23;20668;-75
2023/09/26 14:09:05;;;;;;;19.25;10.25;;;;;;;;;;6084645;23;20011;-76
2023/09/26 14:11:31;;;;;;;14.18;9.65;;;;;;;;;;6086181;23;20381;-76
2023/09/26 14:13:56;;;;;;;13.35;9.13;;;;;;;;;;6084490;23;20018;-75
2023/09/26 14:16:22;;;;;;;17.60;9.95;;;;;;;;;;6085359;23;20372;-77
2023/09/26 14:18:47;;;;;;;15.45;9.18;;;;;;;;;;6087719;23;20508;-76
2023/09/26 14:21:17;;;;;;;14.07;8.52;;;;;;;;;;6083627;23;20055;-77
2023/09/26 14:23:43;;;;;;;20.58;9.38;;;;;;;;;;6083583;23;20011;-77